Dupage Airport
KDPA : now visible

Airfield :











YOU CAN JOIN US ON...

 
LOGIN :

Register | Disclaimer

   EN    FR    IT 

 









Legend :    VFR   Marginal VFR   IFR   Intensive IFR   Very Intensive IFR
Visi :
Ceiling :
>= 8 km
>= 3000ft
5 to 8 km
1000 to 3000 ft
1500m to 5 km
500 to 1000 ft
800 to 1500m
200 to 500 ft
< 800m
< 200 ft
Symbols :   Thunderstorms  Fog  Heavy snow  Heavy precipitations  Wind > 20 kt






- Airport Elevation : 759 ft


KDPA - Dupage

CURRENT METAR :
  • 251752Z 07009KT 10SM BKN028 OVC034 07/02 A3018 RMK AO2 SLP224 T00720017 10072 20028 55009

EXPIRED METARs :
  • 251652Z 05011KT 10SM OVC038 07/02 A3018 RMK AO2 SLP224 T00720017
  • 251552Z 02009KT 10SM OVC042 06/02 A3020 RMK AO2 SLP234 T00610017

TAF KDPA
Valid from the 25 at 18:00 until the 26 at 18:00 UTC


251720Z 2518/2618 05012KT P6SM SCT025 OVC035
FM260300 02010KT P6SM VCSH SCT015 OVC025
FM260600 35012KT 6SM -SHRA BKN015 OVC025
PROB30 2608/2614 4SM -RASN BR BKN015
KZAU FIR / North America



MET'MAP, your aeronautical weather chart ! - Copyright ORBIFLY December 2007 - Disclaimer

ORBIFLY MET'MAP TEAM :

Programming & Development : Alexandra Zaïnal
Concept & original design : Baudouin d'Aumeries
Assistance for programming : Marc-Olivier Méhu
Technical & hardware support : Manuel Goepfert

Contact : metmap@orbifly.com




SOURCES & CREDITS :

   NOAA       Earth
Advisory